createdAt,value
2017-09-26T00:00:09.145Z,1018.8
2017-09-26T00:00:49.714Z,1018.78
2017-09-26T00:01:30.272Z,1018.84
2017-09-26T00:02:10.825Z,1018.82
2017-09-26T00:02:51.395Z,1018.84
2017-09-26T00:03:31.977Z,1018.78
2017-09-26T00:04:12.533Z,1018.81
2017-09-26T00:04:53.109Z,1018.85
2017-09-26T00:05:33.669Z,1018.83
2017-09-26T00:06:14.226Z,1018.8
2017-09-26T00:06:54.785Z,1018.79
2017-09-26T00:07:35.355Z,1018.81
2017-09-26T00:08:15.910Z,1018.83
2017-09-26T00:08:56.474Z,1018.81
2017-09-26T00:09:37.031Z,1018.81
2017-09-26T00:10:17.588Z,1018.83
2017-09-26T00:10:58.147Z,1018.84
2017-09-26T00:11:38.724Z,1018.86
2017-09-26T00:12:19.320Z,1018.81
2017-09-26T00:12:59.880Z,1018.84
2017-09-26T00:13:40.434Z,1018.85
2017-09-26T00:14:20.998Z,1018.88
2017-09-26T00:15:01.585Z,1018.88
2017-09-26T00:15:42.150Z,1018.87
2017-09-26T00:16:22.697Z,1018.9
2017-09-26T00:17:03.270Z,1018.89
2017-09-26T00:17:43.843Z,1018.92
2017-09-26T00:18:24.400Z,1018.92
2017-09-26T00:19:04.966Z,1018.91
2017-09-26T00:19:45.530Z,1018.91
2017-09-26T00:20:26.110Z,1018.92
2017-09-26T00:21:06.691Z,1018.91
2017-09-26T00:21:47.252Z,1018.95
2017-09-26T00:22:42.375Z,1018.92
2017-09-26T00:23:22.948Z,1018.9
2017-09-26T00:24:03.512Z,1018.89
2017-09-26T00:24:44.122Z,1018.91
2017-09-26T00:25:24.678Z,1018.95
2017-09-26T00:26:05.265Z,1018.94
2017-09-26T00:26:45.844Z,1018.94
2017-09-26T00:27:26.455Z,1018.94
2017-09-26T00:28:07.026Z,1018.98
2017-09-26T00:28:47.598Z,1018.97
2017-09-26T00:29:28.159Z,1018.97
2017-09-26T00:30:08.725Z,1018.98
2017-09-26T00:30:49.288Z,1018.97
2017-09-26T00:31:29.849Z,1018.98
2017-09-26T00:32:10.411Z,1018.99
2017-09-26T00:32:50.979Z,1019
2017-09-26T00:33:31.549Z,1018.99
2017-09-26T00:34:12.119Z,1018.99
2017-09-26T00:34:52.675Z,1018.98
2017-09-26T00:35:33.242Z,1018.98
2017-09-26T00:36:13.803Z,1018.98
2017-09-26T00:36:54.361Z,1018.98
2017-09-26T00:37:34.925Z,1018.95
2017-09-26T00:38:15.477Z,1018.94
2017-09-26T00:38:56.032Z,1018.95
2017-09-26T00:39:36.613Z,1018.97
2017-09-26T00:40:17.169Z,1018.95
2017-09-26T00:40:57.756Z,1018.95
2017-09-26T00:41:38.311Z,1018.89
2017-09-26T00:42:18.884Z,1018.93
2017-09-26T00:42:59.442Z,1018.93
2017-09-26T00:43:40.027Z,1018.91
2017-09-26T00:44:20.584Z,1018.94
2017-09-26T00:45:01.156Z,1018.9
2017-09-26T00:45:41.725Z,1018.96
2017-09-26T00:46:22.284Z,1018.9
2017-09-26T00:47:02.902Z,1018.89
2017-09-26T00:47:43.432Z,1018.89
2017-09-26T00:48:24.012Z,1018.93
2017-09-26T00:49:04.591Z,1018.91
2017-09-26T00:49:45.144Z,1018.93
2017-09-26T00:50:25.698Z,1018.93
2017-09-26T00:51:06.251Z,1018.89
2017-09-26T00:51:46.815Z,1018.93
2017-09-26T00:52:27.377Z,1018.9
2017-09-26T00:53:07.971Z,1018.93
2017-09-26T00:53:48.587Z,1018.9
2017-09-26T00:54:29.149Z,1018.92
2017-09-26T00:55:09.723Z,1018.93
2017-09-26T00:55:50.278Z,1018.88
2017-09-26T00:56:30.833Z,1018.87
2017-09-26T00:57:11.394Z,1018.87
2017-09-26T00:57:51.959Z,1018.9
2017-09-26T00:58:32.526Z,1018.92
2017-09-26T00:59:13.082Z,1018.88
2017-09-26T00:59:53.643Z,1018.91
2017-09-26T01:00:34.204Z,1018.89
2017-09-26T01:01:14.751Z,1018.87
2017-09-26T01:01:55.318Z,1018.89
2017-09-26T01:02:35.918Z,1018.88
2017-09-26T01:03:16.511Z,1018.92
2017-09-26T01:03:57.050Z,1018.87
2017-09-26T01:04:37.641Z,1018.86
2017-09-26T01:05:18.204Z,1018.86
2017-09-26T01:05:58.762Z,1018.89
2017-09-26T01:06:39.335Z,1018.87
2017-09-26T01:07:19.911Z,1018.91
2017-09-26T01:08:00.501Z,1018.9
2017-09-26T01:08:41.068Z,1018.89
2017-09-26T01:09:21.654Z,1018.9
2017-09-26T01:10:02.283Z,1018.91
2017-09-26T01:10:42.862Z,1018.91
2017-09-26T01:11:23.424Z,1018.9
2017-09-26T01:12:04.009Z,1018.91
2017-09-26T01:12:44.570Z,1018.93
2017-09-26T01:13:25.169Z,1018.96
2017-09-26T01:14:05.792Z,1018.91
2017-09-26T01:14:46.347Z,1018.93
2017-09-26T01:15:26.925Z,1018.95
2017-09-26T01:16:07.494Z,1019.03
2017-09-26T01:16:48.047Z,1019.04
2017-09-26T01:17:28.647Z,1019.06
2017-09-26T01:18:09.265Z,1019.06
2017-09-26T01:18:49.832Z,1019.07
2017-09-26T01:19:30.731Z,1019.06
2017-09-26T01:20:11.520Z,1019.08
2017-09-26T01:20:52.109Z,1019.1
2017-09-26T01:21:32.670Z,1019.1
2017-09-26T01:22:13.257Z,1019.11
2017-09-26T01:22:53.832Z,1019.09
2017-09-26T01:23:34.418Z,1019.1
2017-09-26T01:24:15.004Z,1019.12
2017-09-26T01:24:55.561Z,1019.18
2017-09-26T01:25:36.241Z,1019.16
2017-09-26T01:26:16.892Z,1019.1
2017-09-26T01:26:57.458Z,1019.14
2017-09-26T01:27:38.041Z,1019.08
2017-09-26T01:28:18.590Z,1019.11
2017-09-26T01:28:59.174Z,1019.06
2017-09-26T01:29:39.762Z,1019.08
2017-09-26T01:30:20.331Z,1019.07
2017-09-26T01:31:00.933Z,1019.07
2017-09-26T01:31:41.515Z,1019.06
2017-09-26T01:32:22.095Z,1019.06
2017-09-26T01:33:02.673Z,1019.06
2017-09-26T01:33:43.294Z,1019.05
2017-09-26T01:34:23.857Z,1019.07
2017-09-26T01:35:04.449Z,1019.07
2017-09-26T01:35:45.037Z,1019.07
2017-09-26T01:36:25.594Z,1019.11
2017-09-26T01:37:06.171Z,1019.09
2017-09-26T01:37:46.729Z,1019.05
2017-09-26T01:38:27.312Z,1019.12
2017-09-26T01:39:07.884Z,1019.1
2017-09-26T01:39:48.495Z,1019.08
2017-09-26T01:40:29.069Z,1019.09
2017-09-26T01:41:09.639Z,1019.11
2017-09-26T01:41:50.277Z,1019.13
2017-09-26T01:42:30.901Z,1019.1
2017-09-26T01:43:11.475Z,1019.14
2017-09-26T01:43:52.032Z,1019.12
2017-09-26T01:44:32.649Z,1019.12
2017-09-26T01:45:13.222Z,1019.16
2017-09-26T01:45:53.785Z,1019.16
2017-09-26T01:46:34.372Z,1019.15
2017-09-26T01:47:14.945Z,1019.15
2017-09-26T01:47:55.542Z,1019.16
2017-09-26T01:48:36.158Z,1019.14
2017-09-26T01:49:16.712Z,1019.2
2017-09-26T01:49:57.267Z,1019.18
2017-09-26T01:50:37.836Z,1019.16
2017-09-26T01:51:18.387Z,1019.16
2017-09-26T01:51:58.960Z,1019.16
2017-09-26T01:52:39.520Z,1019.19
2017-09-26T01:53:20.082Z,1019.2
2017-09-26T01:54:00.640Z,1019.15
2017-09-26T01:54:41.212Z,1019.18
2017-09-26T01:55:21.784Z,1019.2
2017-09-26T01:56:02.358Z,1019.16
2017-09-26T01:56:42.904Z,1019.14
2017-09-26T01:57:23.471Z,1019.12
2017-09-26T01:58:04.036Z,1019.15
2017-09-26T01:58:44.601Z,1019.16
2017-09-26T01:59:25.198Z,1019.19
2017-09-26T02:00:05.752Z,1019.18
2017-09-26T02:00:46.312Z,1019.2
2017-09-26T02:01:26.871Z,1019.15
2017-09-26T02:02:07.431Z,1019.11
2017-09-26T02:02:48.026Z,1019.16
2017-09-26T02:03:28.578Z,1019.16
2017-09-26T02:04:09.139Z,1019.15
2017-09-26T02:04:49.698Z,1019.14
2017-09-26T02:05:30.262Z,1019.13
2017-09-26T02:06:10.832Z,1019.1
2017-09-26T02:06:51.399Z,1019.08
2017-09-26T02:07:31.955Z,1019.1
2017-09-26T02:08:12.505Z,1019.12
2017-09-26T02:08:53.063Z,1019.13
2017-09-26T02:09:33.627Z,1019.1
2017-09-26T02:10:14.193Z,1019.18
2017-09-26T02:10:54.786Z,1019.12
2017-09-26T02:11:35.345Z,1019.07
2017-09-26T02:12:15.894Z,1019.08
2017-09-26T02:12:56.454Z,1019.08
2017-09-26T02:13:37.014Z,1019.06
2017-09-26T02:14:17.592Z,1019.07
2017-09-26T02:14:58.187Z,1019.1
2017-09-26T02:15:38.757Z,1019.08
2017-09-26T02:16:19.319Z,1019.11
2017-09-26T02:16:59.868Z,1019.16
2017-09-26T02:17:40.420Z,1019.16
2017-09-26T02:18:20.976Z,1019.17
2017-09-26T02:19:01.538Z,1019.15
2017-09-26T02:19:42.097Z,1019.18
2017-09-26T02:20:22.648Z,1019.17
2017-09-26T02:21:03.296Z,1019.17
2017-09-26T02:21:43.858Z,1019.17
2017-09-26T02:22:24.435Z,1019.18
2017-09-26T02:23:04.994Z,1019.15
2017-09-26T02:23:45.566Z,1019.18
2017-09-26T02:24:26.130Z,1019.17
2017-09-26T02:25:06.713Z,1019.2
2017-09-26T02:25:47.274Z,1019.22
2017-09-26T02:26:27.843Z,1019.21
2017-09-26T02:27:08.393Z,1019.22
2017-09-26T02:27:48.963Z,1019.23
2017-09-26T02:28:29.550Z,1019.23
2017-09-26T02:29:10.113Z,1019.23
2017-09-26T02:29:50.669Z,1019.26
2017-09-26T02:30:31.231Z,1019.21
2017-09-26T02:31:11.785Z,1019.2
2017-09-26T02:31:52.345Z,1019.2
2017-09-26T02:32:32.928Z,1019.17
2017-09-26T02:33:13.461Z,1019.22
2017-09-26T02:33:54.020Z,1019.18
2017-09-26T02:34:34.587Z,1019.2
2017-09-26T02:35:15.167Z,1019.21
2017-09-26T02:35:55.736Z,1019.19
2017-09-26T02:36:36.304Z,1019.21
2017-09-26T02:37:16.864Z,1019.18
2017-09-26T02:37:57.443Z,1019.21
2017-09-26T02:38:38.009Z,1019.16
2017-09-26T02:39:18.568Z,1019.17
2017-09-26T02:39:59.145Z,1019.14
2017-09-26T02:40:39.721Z,1019.14
2017-09-26T02:41:20.285Z,1019.19
2017-09-26T02:42:00.846Z,1019.2
2017-09-26T02:42:41.418Z,1019.24
2017-09-26T02:43:21.988Z,1019.17
2017-09-26T02:44:02.557Z,1019.24
2017-09-26T02:44:43.129Z,1019.23
2017-09-26T02:45:23.683Z,1019.21
2017-09-26T02:46:04.254Z,1019.25
2017-09-26T02:46:44.820Z,1019.23
2017-09-26T02:47:25.383Z,1019.26
2017-09-26T02:48:05.947Z,1019.25
2017-09-26T02:48:46.507Z,1019.24
2017-09-26T02:49:27.083Z,1019.25
2017-09-26T02:50:07.635Z,1019.22
2017-09-26T02:50:48.201Z,1019.22
2017-09-26T02:51:28.773Z,1019.2
2017-09-26T02:52:09.369Z,1019.23
2017-09-26T02:52:49.977Z,1019.22
2017-09-26T02:53:30.506Z,1019.25
2017-09-26T02:54:11.071Z,1019.23
2017-09-26T02:54:51.640Z,1019.24
2017-09-26T02:55:32.205Z,1019.24
2017-09-26T02:56:12.790Z,1019.23
2017-09-26T02:56:53.345Z,1019.27
2017-09-26T02:57:33.910Z,1019.27
2017-09-26T02:58:14.485Z,1019.27
2017-09-26T02:58:55.035Z,1019.26
2017-09-26T02:59:35.598Z,1019.33
2017-09-26T03:00:16.164Z,1019.23
2017-09-26T03:00:56.745Z,1019.27
2017-09-26T03:01:37.314Z,1019.26
2017-09-26T03:02:17.862Z,1019.24
2017-09-26T03:02:58.441Z,1019.27
2017-09-26T03:03:38.992Z,1019.26
2017-09-26T03:04:19.541Z,1019.27
2017-09-26T03:05:00.115Z,1019.23
2017-09-26T03:05:40.702Z,1019.23
2017-09-26T03:06:21.262Z,1019.22
2017-09-26T03:07:01.845Z,1019.29
2017-09-26T03:07:42.412Z,1019.27
2017-09-26T03:08:22.992Z,1019.24
2017-09-26T03:09:03.562Z,1019.27
2017-09-26T03:09:44.143Z,1019.24
2017-09-26T03:10:24.774Z,1019.23
2017-09-26T03:11:05.328Z,1019.25
2017-09-26T03:11:45.889Z,1019.2
2017-09-26T03:12:26.464Z,1019.24
2017-09-26T03:13:07.036Z,1019.19
2017-09-26T03:13:47.589Z,1019.22
2017-09-26T03:14:28.155Z,1019.16
2017-09-26T03:15:08.714Z,1019.22
2017-09-26T03:15:49.272Z,1019.2
2017-09-26T03:16:29.836Z,1019.23
2017-09-26T03:17:10.407Z,1019.18
2017-09-26T03:17:50.978Z,1019.17
2017-09-26T03:18:31.560Z,1019.16
2017-09-26T03:19:12.120Z,1019.14
2017-09-26T03:19:52.688Z,1019.17
2017-09-26T03:20:33.256Z,1019.19
2017-09-26T03:21:13.819Z,1019.16
2017-09-26T03:21:54.385Z,1019.18
2017-09-26T03:22:34.959Z,1019.22
2017-09-26T03:23:15.519Z,1019.19
2017-09-26T03:23:56.080Z,1019.2
2017-09-26T03:24:36.642Z,1019.22
2017-09-26T03:25:17.202Z,1019.23
2017-09-26T03:25:57.773Z,1019.25
2017-09-26T03:26:38.330Z,1019.24
2017-09-26T03:27:18.905Z,1019.25
2017-09-26T03:27:59.474Z,1019.24
2017-09-26T03:28:40.038Z,1019.27
2017-09-26T03:29:20.603Z,1019.27
2017-09-26T03:30:01.166Z,1019.2
2017-09-26T03:30:41.745Z,1019.25
2017-09-26T03:31:22.310Z,1019.25
2017-09-26T03:32:02.884Z,1019.24
2017-09-26T03:32:43.433Z,1019.25
2017-09-26T03:33:23.993Z,1019.21
2017-09-26T03:34:04.549Z,1019.23
2017-09-26T03:34:45.114Z,1019.2
2017-09-26T03:35:25.679Z,1019.22
2017-09-26T03:36:06.246Z,1019.22
2017-09-26T03:36:46.813Z,1019.3
2017-09-26T03:37:27.393Z,1019.27
2017-09-26T03:38:07.959Z,1019.28
2017-09-26T03:38:48.521Z,1019.26
2017-09-26T03:39:31.662Z,1019.28
2017-09-26T03:40:12.228Z,1019.26
2017-09-26T03:40:52.814Z,1019.26
2017-09-26T03:41:33.381Z,1019.29
2017-09-26T03:42:13.941Z,1019.28
2017-09-26T03:42:54.509Z,1019.33
2017-09-26T03:43:35.068Z,1019.26
2017-09-26T03:44:15.673Z,1019.31
2017-09-26T03:44:56.221Z,1019.28
2017-09-26T03:45:36.807Z,1019.29
2017-09-26T03:46:17.369Z,1019.31
2017-09-26T03:46:57.931Z,1019.32
2017-09-26T03:47:38.487Z,1019.34
2017-09-26T03:48:19.064Z,1019.31
2017-09-26T03:48:59.625Z,1019.33
2017-09-26T03:49:40.209Z,1019.36
2017-09-26T03:50:20.795Z,1019.37
2017-09-26T03:51:01.363Z,1019.34
2017-09-26T03:51:41.938Z,1019.32
2017-09-26T03:52:22.512Z,1019.38
2017-09-26T03:53:03.078Z,1019.37
2017-09-26T03:53:43.628Z,1019.36
2017-09-26T03:54:24.192Z,1019.37
2017-09-26T03:55:04.753Z,1019.37
2017-09-26T03:55:45.326Z,1019.35
2017-09-26T03:56:25.888Z,1019.36
2017-09-26T03:57:06.467Z,1019.37
2017-09-26T03:57:47.046Z,1019.43
2017-09-26T03:58:27.605Z,1019.41
2017-09-26T03:59:08.162Z,1019.42
2017-09-26T03:59:48.746Z,1019.44
2017-09-26T04:00:29.336Z,1019.44
2017-09-26T04:01:09.904Z,1019.43
2017-09-26T04:01:50.481Z,1019.5
2017-09-26T04:02:31.054Z,1019.46
2017-09-26T04:03:11.621Z,1019.5
2017-09-26T04:03:52.184Z,1019.48
2017-09-26T04:04:32.757Z,1019.47
2017-09-26T04:05:13.323Z,1019.49
2017-09-26T04:05:53.881Z,1019.49
2017-09-26T04:06:34.451Z,1019.52
2017-09-26T04:07:15.040Z,1019.55
2017-09-26T04:07:55.605Z,1019.51
2017-09-26T04:08:36.154Z,1019.52
2017-09-26T04:09:16.719Z,1019.52
2017-09-26T04:09:57.275Z,1019.5
2017-09-26T04:10:37.852Z,1019.58
2017-09-26T04:11:18.416Z,1019.58
2017-09-26T04:11:58.988Z,1019.55
2017-09-26T04:12:39.545Z,1019.58
2017-09-26T04:13:20.142Z,1019.55
2017-09-26T04:14:00.719Z,1019.57
2017-09-26T04:14:41.354Z,1019.59
2017-09-26T04:15:21.932Z,1019.63
2017-09-26T04:16:02.546Z,1019.56
2017-09-26T04:16:43.143Z,1019.59
2017-09-26T04:17:23.737Z,1019.55
2017-09-26T04:18:04.320Z,1019.56
2017-09-26T04:18:44.948Z,1019.55
2017-09-26T04:19:25.514Z,1019.54
2017-09-26T04:20:06.071Z,1019.54
2017-09-26T04:20:46.641Z,1019.57
2017-09-26T04:21:27.310Z,1019.55
2017-09-26T04:22:07.872Z,1019.59
2017-09-26T04:22:48.462Z,1019.59
2017-09-26T04:23:29.028Z,1019.57
2017-09-26T04:24:09.613Z,1019.57
2017-09-26T04:24:50.213Z,1019.62
2017-09-26T04:25:30.855Z,1019.63
2017-09-26T04:26:11.418Z,1019.6
2017-09-26T04:26:51.978Z,1019.59
2017-09-26T04:27:32.594Z,1019.61
2017-09-26T04:28:13.175Z,1019.63
2017-09-26T04:28:53.790Z,1019.65
2017-09-26T04:29:34.375Z,1019.63
2017-09-26T04:30:14.952Z,1019.64
2017-09-26T04:30:55.564Z,1019.68
2017-09-26T04:31:36.133Z,1019.66
2017-09-26T04:32:16.691Z,1019.72
2017-09-26T04:32:57.336Z,1019.69
2017-09-26T04:33:37.911Z,1019.67
2017-09-26T04:34:18.511Z,1019.71
2017-09-26T04:34:59.086Z,1019.69
2017-09-26T04:35:39.705Z,1019.71
2017-09-26T04:36:20.278Z,1019.73
2017-09-26T04:37:00.937Z,1019.74
2017-09-26T04:37:41.493Z,1019.72
2017-09-26T04:38:22.108Z,1019.74
2017-09-26T04:39:02.668Z,1019.78
2017-09-26T04:39:43.248Z,1019.76
2017-09-26T04:40:23.821Z,1019.78
2017-09-26T04:41:04.393Z,1019.73
2017-09-26T04:41:44.997Z,1019.73
2017-09-26T04:42:25.554Z,1019.79
2017-09-26T04:43:06.157Z,1019.78
2017-09-26T04:43:46.782Z,1019.81
2017-09-26T04:44:27.364Z,1019.84
2017-09-26T04:45:07.938Z,1019.76
2017-09-26T04:45:48.548Z,1019.81
2017-09-26T04:46:29.092Z,1019.77
2017-09-26T04:47:09.702Z,1019.78
2017-09-26T04:47:50.247Z,1019.8
2017-09-26T04:48:30.839Z,1019.78
2017-09-26T04:49:11.400Z,1019.81
2017-09-26T04:49:51.990Z,1019.83
2017-09-26T04:50:32.605Z,1019.77
2017-09-26T04:51:13.150Z,1019.85
2017-09-26T04:51:53.722Z,1019.79
2017-09-26T04:52:34.300Z,1019.81
2017-09-26T04:53:14.866Z,1019.77
2017-09-26T04:53:55.442Z,1019.84
2017-09-26T04:54:36.020Z,1019.78
2017-09-26T04:55:16.641Z,1019.84
2017-09-26T04:55:57.196Z,1019.86
2017-09-26T04:56:37.777Z,1019.85
2017-09-26T04:57:18.368Z,1019.83
2017-09-26T04:57:58.942Z,1019.85
2017-09-26T04:58:39.517Z,1019.89
2017-09-26T04:59:20.077Z,1019.85
2017-09-26T05:00:00.682Z,1019.88
2017-09-26T05:00:41.236Z,1019.89
2017-09-26T05:01:21.832Z,1019.86
2017-09-26T05:02:02.399Z,1019.9
2017-09-26T05:02:42.959Z,1019.89
2017-09-26T05:03:23.522Z,1019.93
2017-09-26T05:04:04.094Z,1019.92
2017-09-26T05:04:44.662Z,1019.91
2017-09-26T05:05:25.229Z,1019.9
2017-09-26T05:06:05.794Z,1019.84
2017-09-26T05:06:46.377Z,1019.88
2017-09-26T05:07:26.965Z,1019.91
2017-09-26T05:08:07.522Z,1019.88
2017-09-26T05:08:48.107Z,1019.88
2017-09-26T05:09:28.666Z,1019.89
2017-09-26T05:10:09.235Z,1019.88
2017-09-26T05:10:49.785Z,1019.9
2017-09-26T05:11:30.364Z,1019.97
2017-09-26T05:12:10.921Z,1019.95
2017-09-26T05:12:51.502Z,1019.93
2017-09-26T05:13:32.059Z,1019.96
2017-09-26T05:14:12.613Z,1019.96
2017-09-26T05:14:53.170Z,1019.94
2017-09-26T05:15:33.743Z,1019.97
2017-09-26T05:16:14.307Z,1019.97
2017-09-26T05:16:54.863Z,1019.98
2017-09-26T05:17:35.454Z,1019.98
2017-09-26T05:18:15.987Z,1020.02
2017-09-26T05:18:56.549Z,1020.01
2017-09-26T05:19:37.114Z,1020.04
2017-09-26T05:20:17.685Z,1020.02
2017-09-26T05:20:58.245Z,1020.1
2017-09-26T05:21:38.797Z,1020.03
2017-09-26T05:22:19.366Z,1020.07
2017-09-26T05:22:59.923Z,1020.08
2017-09-26T05:23:40.483Z,1020.1
2017-09-26T05:24:21.070Z,1020.09
2017-09-26T05:25:01.656Z,1020.08
2017-09-26T05:25:42.247Z,1020.11
2017-09-26T05:26:22.829Z,1020.07
2017-09-26T05:27:03.392Z,1020.1
2017-09-26T05:27:43.961Z,1020.08
2017-09-26T05:28:24.523Z,1020.11
2017-09-26T05:29:05.288Z,1020.12
2017-09-26T05:29:45.872Z,1020.16
2017-09-26T05:30:26.466Z,1020.1
2017-09-26T05:31:07.020Z,1020.06
2017-09-26T05:31:47.594Z,1020.13
2017-09-26T05:32:28.211Z,1020.06
2017-09-26T05:33:08.774Z,1020.13
2017-09-26T05:33:49.350Z,1020.13
2017-09-26T05:34:29.904Z,1020.14
2017-09-26T05:35:10.463Z,1020.16
2017-09-26T05:35:51.029Z,1020.13
2017-09-26T05:36:31.633Z,1020.14
2017-09-26T05:37:12.204Z,1020.13
2017-09-26T05:37:52.762Z,1020.16
2017-09-26T05:38:33.376Z,1020.17
2017-09-26T05:39:13.976Z,1020.16
2017-09-26T05:39:54.559Z,1020.21
2017-09-26T05:40:35.305Z,1020.2
2017-09-26T05:41:15.940Z,1020.19
2017-09-26T05:41:56.502Z,1020.17
2017-09-26T05:42:37.063Z,1020.18
2017-09-26T05:43:17.636Z,1020.22
2017-09-26T05:43:58.288Z,1020.19
2017-09-26T05:44:38.867Z,1020.18
2017-09-26T05:45:19.424Z,1020.16
2017-09-26T05:45:59.990Z,1020.2
2017-09-26T05:46:40.574Z,1020.2
2017-09-26T05:47:21.133Z,1020.21
2017-09-26T05:48:01.704Z,1020.21
2017-09-26T05:48:42.269Z,1020.27
2017-09-26T05:49:22.845Z,1020.24
2017-09-26T05:50:03.399Z,1020.23
2017-09-26T05:50:43.991Z,1020.26
2017-09-26T05:51:24.555Z,1020.25
2017-09-26T05:52:05.119Z,1020.28
2017-09-26T05:52:45.704Z,1020.27
2017-09-26T05:53:26.278Z,1020.28
2017-09-26T05:54:06.834Z,1020.28
2017-09-26T05:54:47.408Z,1020.33
2017-09-26T05:55:27.975Z,1020.31
2017-09-26T05:56:08.551Z,1020.3
2017-09-26T05:56:49.105Z,1020.3
2017-09-26T05:57:29.713Z,1020.31
2017-09-26T05:58:10.287Z,1020.34
2017-09-26T05:58:50.856Z,1020.33
2017-09-26T05:59:31.456Z,1020.38
2017-09-26T06:00:12.055Z,1020.36
2017-09-26T06:00:52.621Z,1020.35
2017-09-26T06:01:33.177Z,1020.35
2017-09-26T06:02:13.745Z,1020.37
2017-09-26T06:02:54.300Z,1020.37
2017-09-26T06:03:34.843Z,1020.32
2017-09-26T06:04:15.411Z,1020.4
2017-09-26T06:04:55.975Z,1020.39
2017-09-26T06:05:36.543Z,1020.4
2017-09-26T06:06:17.097Z,1020.38
2017-09-26T06:06:57.664Z,1020.4
2017-09-26T06:07:38.238Z,1020.39
2017-09-26T06:08:18.803Z,1020.4
2017-09-26T06:08:59.368Z,1020.41
2017-09-26T06:09:39.931Z,1020.4
2017-09-26T06:10:20.490Z,1020.46
2017-09-26T06:11:01.050Z,1020.45
2017-09-26T06:11:41.618Z,1020.42
2017-09-26T06:12:22.178Z,1020.43
2017-09-26T06:13:02.744Z,1020.44
2017-09-26T06:13:43.296Z,1020.39
2017-09-26T06:14:23.864Z,1020.45
2017-09-26T06:15:04.453Z,1020.44
2017-09-26T06:15:45.025Z,1020.41
2017-09-26T06:16:25.589Z,1020.41
2017-09-26T06:17:06.144Z,1020.42
2017-09-26T06:17:46.699Z,1020.38
2017-09-26T06:18:27.288Z,1020.39
2017-09-26T06:19:07.837Z,1020.37
2017-09-26T06:19:48.409Z,1020.37
2017-09-26T06:20:28.974Z,1020.4
2017-09-26T06:21:09.533Z,1020.39
2017-09-26T06:21:50.090Z,1020.36
2017-09-26T06:22:30.651Z,1020.38
2017-09-26T06:23:11.217Z,1020.38
2017-09-26T06:23:51.805Z,1020.37
2017-09-26T06:24:32.385Z,1020.39
2017-09-26T06:25:12.945Z,1020.36
2017-09-26T06:25:53.529Z,1020.38
2017-09-26T06:26:34.103Z,1020.37
2017-09-26T06:27:14.668Z,1020.33
2017-09-26T06:27:55.242Z,1020.39
2017-09-26T06:28:35.824Z,1020.4
2017-09-26T06:29:16.387Z,1020.38
2017-09-26T06:29:56.949Z,1020.41
2017-09-26T06:30:37.526Z,1020.4
2017-09-26T06:31:18.103Z,1020.37
2017-09-26T06:31:58.669Z,1020.44
2017-09-26T06:32:39.227Z,1020.4
2017-09-26T06:33:19.791Z,1020.42
2017-09-26T06:34:00.351Z,1020.44
2017-09-26T06:34:40.921Z,1020.4
2017-09-26T06:35:21.478Z,1020.44
2017-09-26T06:36:02.057Z,1020.47
2017-09-26T06:36:42.636Z,1020.48
2017-09-26T06:37:23.202Z,1020.43
2017-09-26T06:38:03.771Z,1020.5
2017-09-26T06:38:44.357Z,1020.47
2017-09-26T06:39:24.943Z,1020.46
2017-09-26T06:40:05.501Z,1020.43
2017-09-26T06:40:46.069Z,1020.46
2017-09-26T06:41:26.642Z,1020.49
2017-09-26T06:42:07.190Z,1020.49
2017-09-26T06:42:47.757Z,1020.5
2017-09-26T06:43:28.319Z,1020.49
2017-09-26T06:44:08.885Z,1020.46
2017-09-26T06:44:49.447Z,1020.47
2017-09-26T06:45:30.042Z,1020.46
2017-09-26T06:46:10.592Z,1020.47
2017-09-26T06:46:51.168Z,1020.49
2017-09-26T06:47:31.751Z,1020.47
2017-09-26T06:48:12.317Z,1020.5
2017-09-26T06:48:52.921Z,1020.48
2017-09-26T06:49:33.491Z,1020.48
2017-09-26T06:50:14.055Z,1020.51
2017-09-26T06:50:54.617Z,1020.49
2017-09-26T06:51:35.194Z,1020.5
2017-09-26T06:52:15.747Z,1020.53
2017-09-26T06:52:56.340Z,1020.52
2017-09-26T06:53:36.903Z,1020.52
2017-09-26T06:54:17.497Z,1020.52
2017-09-26T06:54:58.081Z,1020.51
2017-09-26T06:55:38.675Z,1020.54
2017-09-26T06:56:19.245Z,1020.54
2017-09-26T06:56:59.819Z,1020.54
2017-09-26T06:57:40.399Z,1020.56
2017-09-26T06:58:20.952Z,1020.55
2017-09-26T06:59:01.503Z,1020.54
2017-09-26T06:59:42.068Z,1020.57
2017-09-26T07:00:22.673Z,1020.58
2017-09-26T07:01:03.238Z,1020.6
2017-09-26T07:01:43.840Z,1020.64
2017-09-26T07:02:24.407Z,1020.61
2017-09-26T07:03:04.979Z,1020.63
2017-09-26T07:03:45.569Z,1020.65
2017-09-26T07:04:26.130Z,1020.69
2017-09-26T07:05:06.712Z,1020.66
2017-09-26T07:05:47.281Z,1020.62
2017-09-26T07:06:27.849Z,1020.65
2017-09-26T07:07:08.409Z,1020.66
2017-09-26T07:07:48.985Z,1020.67
2017-09-26T07:08:29.561Z,1020.67
2017-09-26T07:09:10.151Z,1020.68
2017-09-26T07:09:50.755Z,1020.72
2017-09-26T07:10:31.313Z,1020.7
2017-09-26T07:11:11.882Z,1020.71
2017-09-26T07:11:52.464Z,1020.72
2017-09-26T07:12:33.027Z,1020.74
2017-09-26T07:13:13.608Z,1020.73
2017-09-26T07:13:54.181Z,1020.72
2017-09-26T07:14:34.740Z,1020.73
2017-09-26T07:15:15.307Z,1020.69
2017-09-26T07:15:55.885Z,1020.69
2017-09-26T07:16:36.458Z,1020.71
2017-09-26T07:17:17.073Z,1020.72
2017-09-26T07:17:57.639Z,1020.71
2017-09-26T07:18:38.201Z,1020.71
2017-09-26T07:19:18.777Z,1020.73
2017-09-26T07:19:59.342Z,1020.77
2017-09-26T07:20:39.979Z,1020.79
2017-09-26T07:21:20.548Z,1020.72
2017-09-26T07:22:01.239Z,1020.76
2017-09-26T07:22:41.801Z,1020.75
2017-09-26T07:23:22.384Z,1020.79
2017-09-26T07:24:02.950Z,1020.79
2017-09-26T07:24:43.548Z,1020.81
2017-09-26T07:25:24.119Z,1020.78
2017-09-26T07:26:04.748Z,1020.79
2017-09-26T07:26:45.374Z,1020.85
2017-09-26T07:27:25.942Z,1020.83
2017-09-26T07:28:06.514Z,1020.8
2017-09-26T07:28:47.084Z,1020.83
2017-09-26T07:29:27.653Z,1020.88
2017-09-26T07:30:08.251Z,1020.84
2017-09-26T07:30:48.812Z,1020.88
2017-09-26T07:31:29.368Z,1020.86
2017-09-26T07:32:09.949Z,1020.93
2017-09-26T07:32:50.509Z,1020.92
2017-09-26T07:33:31.095Z,1020.89
2017-09-26T07:34:11.661Z,1020.94
2017-09-26T07:34:52.219Z,1020.93
2017-09-26T07:35:32.788Z,1020.92
2017-09-26T07:36:13.353Z,1020.9
2017-09-26T07:36:53.915Z,1020.86
2017-09-26T07:37:34.476Z,1020.91
2017-09-26T07:38:15.039Z,1020.9
2017-09-26T07:38:55.604Z,1020.94
2017-09-26T07:39:36.175Z,1020.94
2017-09-26T07:40:16.759Z,1020.95
2017-09-26T07:40:57.320Z,1020.94
2017-09-26T07:41:37.898Z,1020.96
2017-09-26T07:42:18.484Z,1020.94
2017-09-26T07:42:59.120Z,1020.94
2017-09-26T07:43:39.699Z,1020.97
2017-09-26T07:44:20.295Z,1020.96
2017-09-26T07:45:00.861Z,1020.98
2017-09-26T07:45:41.435Z,1020.95
2017-09-26T07:46:22.040Z,1020.96
2017-09-26T07:47:02.610Z,1020.98
2017-09-26T07:47:43.185Z,1021.01
2017-09-26T07:48:23.766Z,1020.98
2017-09-26T07:49:04.324Z,1020.95
2017-09-26T07:49:44.879Z,1021.01
2017-09-26T07:50:25.454Z,1020.98
2017-09-26T07:51:06.468Z,1021
2017-09-26T07:51:47.053Z,1020.98
2017-09-26T07:52:27.611Z,1020.96
2017-09-26T07:53:08.185Z,1020.97
2017-09-26T07:53:48.752Z,1021.01
2017-09-26T07:54:29.360Z,1020.97
2017-09-26T07:55:10.394Z,1020.97
2017-09-26T07:55:50.963Z,1020.97
2017-09-26T07:56:31.557Z,1021.03
2017-09-26T07:57:12.115Z,1020.96
2017-09-26T07:57:52.932Z,1020.94
2017-09-26T07:58:33.500Z,1021
2017-09-26T07:59:14.074Z,1020.97
2017-09-26T07:59:54.641Z,1021.02
2017-09-26T08:00:35.216Z,1021.03
2017-09-26T08:01:15.786Z,1021.04
2017-09-26T08:01:56.389Z,1021.01
2017-09-26T08:02:36.938Z,1021.02
2017-09-26T08:03:17.503Z,1021.01
2017-09-26T08:03:58.066Z,1020.99
2017-09-26T08:04:38.647Z,1020.99
2017-09-26T08:05:19.219Z,1021
2017-09-26T08:05:59.792Z,1020.98
2017-09-26T08:06:40.358Z,1021.02
2017-09-26T08:07:20.920Z,1021.01
2017-09-26T08:08:01.477Z,1020.99
2017-09-26T08:08:42.043Z,1020.97
2017-09-26T08:09:22.616Z,1020.96
2017-09-26T08:10:03.186Z,1021.02
2017-09-26T08:10:43.752Z,1020.98
2017-09-26T08:11:24.321Z,1021.04
2017-09-26T08:12:04.891Z,1021
2017-09-26T08:12:45.470Z,1021.04